Time;durP1;ratioP1;P1;durP2;ratioP2;P2;SDS_P1;SDS_P2;PMS_P1;PMS_P2;Temp;Humidity;BMP_temperature;BMP_pressure;BME280_temperature;BME280_humidity;BME280_pressure;Samples;Min_cycle;Max_cycle;Signal;HPM_P1;HPM_P2
2022/11/23 00:00:18;;;;;;;;;57.00;45.00;;;;;6.79;58.50;97675.97;6200305;28;97177;-64
2022/11/23 00:03:21;;;;;;;;;58.40;45.80;;;;;6.83;58.39;97677.19;6197763;28;97036;-64
2022/11/23 00:06:25;;;;;;;;;52.00;43.00;;;;;6.84;58.31;97675.34;6198464;28;96327;-63
2022/11/23 00:09:30;;;;;;;;;60.75;47.75;;;;;6.84;58.28;97678.81;6196865;28;96355;-64
2022/11/23 00:12:34;;;;;;;;;59.00;47.00;;;;;6.83;58.51;97679.88;6191924;28;97820;-63
2022/11/23 00:15:40;;;;;;;;;55.00;44.50;;;;;6.83;58.31;97676.38;6189613;28;96663;-63
2022/11/23 00:18:45;;;;;;;;;57.00;45.80;;;;;6.83;58.09;97685.22;6169228;28;96733;-64
2022/11/23 00:21:48;;;;;;;;;57.00;46.00;;;;;6.68;58.20;97665.25;6187882;28;96867;-63
2022/11/23 00:24:53;;;;;;;;;55.40;44.00;;;;;6.77;58.48;97677.28;6188149;28;97046;-63
2022/11/23 00:27:56;;;;;;;;;55.40;44.80;;;;;6.81;58.35;97681.13;6187351;28;96298;-63
2022/11/23 00:31:00;;;;;;;;;52.60;43.00;;;;;6.78;58.34;97676.22;6186242;28;96549;-63
2022/11/23 00:34:03;;;;;;;;;55.40;44.20;;;;;6.72;58.47;97677.13;6185149;28;96668;-64
2022/11/23 00:37:07;;;;;;;;;52.50;42.50;;;;;6.70;58.71;97673.84;6168352;28;96397;-63
2022/11/23 00:40:12;;;;;;;;;57.00;46.00;;;;;6.72;58.60;97677.13;6186386;28;96556;-63
2022/11/23 00:43:16;;;;;;;;;51.80;42.80;;;;;6.68;58.63;97675.94;6187741;28;96559;-63
2022/11/23 00:46:21;;;;;;;;;54.60;44.00;;;;;6.67;58.59;97687.69;6187154;28;96382;-64
2022/11/23 00:49:24;;;;;;;;;54.20;43.60;;;;;6.58;58.86;97692.56;6185068;28;96561;-63
2022/11/23 00:52:29;;;;;;;;;58.60;46.00;;;;;6.55;58.96;97700.22;6185868;28;96371;-63
2022/11/23 00:55:33;;;;;;;;;55.00;44.00;;;;;6.56;58.92;97697.31;6186240;28;96455;-64
2022/11/23 00:58:38;;;;;;;;;53.00;43.00;;;;;6.50;59.14;97700.88;6186437;28;96285;-63
2022/11/23 01:01:41;;;;;;;;;55.40;45.20;;;;;6.47;59.26;97706.69;6169312;28;96409;-63
2022/11/23 01:04:45;;;;;;;;;55.00;42.60;;;;;6.38;59.29;97708.03;6152763;28;96765;-63
2022/11/23 01:07:48;;;;;;;;;56.80;45.20;;;;;6.34;59.54;97691.63;6186904;28;96378;-64
2022/11/23 01:10:53;;;;;;;;;55.60;44.20;;;;;6.30;59.78;97681.59;6186905;28;96873;-64
2022/11/23 01:13:56;;;;;;;;;57.25;46.00;;;;;6.32;59.84;97688.34;6152293;28;96602;-63
2022/11/23 01:16:59;;;;;;;;;57.25;45.25;;;;;6.34;59.61;97686.25;6152526;28;96834;-64
2022/11/23 01:20:03;;;;;;;;;52.00;42.60;;;;;6.37;59.78;97683.13;6169592;28;96277;-63
2022/11/23 01:23:07;;;;;;;;;56.20;45.40;;;;;6.37;59.69;97680.44;6185156;28;97509;-64
2022/11/23 01:26:12;;;;;;;;;52.60;44.00;;;;;6.32;59.58;97677.63;6169308;28;96969;-64
2022/11/23 01:29:15;;;;;;;;;57.20;44.00;;;;;6.24;59.97;97685.16;6185297;28;97653;-63
2022/11/23 01:32:18;;;;;;;;;55.00;44.40;;;;;6.27;60.11;97679.34;6168679;28;96416;-63
2022/11/23 01:35:22;;;;;;;;;53.40;43.60;;;;;6.32;59.98;97666.91;6186396;28;96451;-63
2022/11/23 01:38:27;;;;;;;;;52.00;42.00;;;;;6.25;60.05;97671.56;6168033;28;98963;-63
2022/11/23 01:41:35;;;;;;;;;50.80;40.80;;;;;6.25;59.91;97681.44;6186127;28;97123;-64
2022/11/23 01:44:38;;;;;;;;;52.40;43.00;;;;;6.32;60.00;97682.16;6186155;28;96379;-63
2022/11/23 01:47:41;;;;;;;;;52.25;42.75;;;;;6.39;59.94;97678.38;6167061;28;96260;-63
2022/11/23 01:50:48;;;;;;;;;50.40;41.00;;;;;6.43;59.55;97679.56;6168659;28;97534;-63
2022/11/23 01:53:57;;;;;;;;;49.20;41.60;;;;;6.36;59.42;97678.00;6186584;28;96274;-63
2022/11/23 01:57:06;;;;;;;;;49.25;41.00;;;;;6.23;59.67;97683.50;6184509;28;97426;-62
2022/11/23 02:00:12;;;;;;;;;52.40;40.60;;;;;6.18;59.74;97683.34;6168573;28;96261;-62
2022/11/23 02:03:15;;;;;;;;;52.00;42.75;;;;;6.20;59.71;97678.59;6185760;28;96557;-62
2022/11/23 02:06:23;;;;;;;;;45.80;38.00;;;;;6.27;59.41;97682.84;6143843;28;96539;-62
2022/11/23 02:09:26;;;;;;;;;50.00;41.00;;;;;6.31;59.56;97686.69;6160523;28;96696;-63
2022/11/23 02:12:31;;;;;;;;;49.80;42.00;;;;;6.26;59.33;97677.69;6160420;28;96688;-63
2022/11/23 02:15:35;;;;;;;;;46.25;37.50;;;;;5.97;60.06;97668.53;6161675;28;96222;-62
2022/11/23 02:18:43;;;;;;;;;47.20;38.60;;;;;6.02;60.07;97676.72;6159917;28;96876;-63
2022/11/23 02:21:46;;;;;;;;;49.00;39.00;;;;;6.08;59.95;97665.97;6165580;28;97128;-63
2022/11/23 02:24:55;;;;;;;;;50.00;40.00;;;;;6.10;59.80;97655.06;6168008;28;97753;-63
2022/11/23 02:28:01;;;;;;;;;49.60;40.40;;;;;6.21;59.82;97664.97;6184126;28;96830;-63
2022/11/23 02:31:05;;;;;;;;;49.20;40.80;;;;;6.16;59.82;97661.38;6185532;28;96420;-63
2022/11/23 02:34:08;;;;;;;;;47.40;39.20;;;;;6.09;59.84;97664.09;6159302;28;96529;-62
2022/11/23 02:37:12;;;;;;;;;51.50;40.00;;;;;5.98;60.43;97665.66;6165821;28;96323;-62
2022/11/23 02:40:25;;;;;;;;;50.60;40.00;;;;;6.12;60.32;97676.22;6167426;28;96301;-63
2022/11/23 02:43:30;;;;;;;;;47.60;39.60;;;;;6.24;60.27;97669.91;6185912;28;97123;-63
2022/11/23 02:46:33;;;;;;;;;51.40;41.40;;;;;6.23;60.08;97668.28;6184701;28;96305;-64
2022/11/23 02:49:39;;;;;;;;;46.80;38.60;;;;;6.23;60.00;97678.16;6168068;28;96679;-63
2022/11/23 02:53:00;;;;;;;;;50.00;41.00;;;;;6.20;60.30;97674.06;6186229;28;96430;-62
2022/11/23 02:56:03;;;;;;;;;52.80;42.00;;;;;6.18;60.22;97669.97;6167713;28;96225;-63
2022/11/23 02:59:08;;;;;;;;;47.60;39.00;;;;;6.20;60.27;97668.72;6169802;28;96663;-63
2022/11/23 03:02:11;;;;;;;;;51.20;41.60;;;;;6.16;60.21;97670.19;6192471;28;96427;-63
2022/11/23 03:05:15;;;;;;;;;43.50;36.50;;;;;6.18;60.24;97664.63;6196308;28;98144;-63
2022/11/23 03:08:18;;;;;;;;;52.00;42.00;;;;;6.21;60.39;97664.16;6190868;28;97984;-63
2022/11/23 03:11:22;;;;;;;;;51.40;41.80;;;;;6.21;60.07;97666.84;6172122;28;97276;-62
2022/11/23 03:14:26;;;;;;;;;51.80;42.20;;;;;6.18;60.13;97668.13;6189864;28;96439;-63
2022/11/23 03:17:36;;;;;;;;;47.00;39.00;;;;;6.06;60.20;97661.84;6172452;28;96461;-63
2022/11/23 03:20:43;;;;;;;;;50.75;41.25;;;;;6.05;60.63;97663.75;6188874;28;96377;-63
2022/11/23 03:23:46;;;;;;;;;53.50;43.00;;;;;6.08;60.79;97663.28;6189411;28;97513;-63
2022/11/23 03:26:50;;;;;;;;;49.25;39.25;;;;;6.12;60.63;97665.50;6147313;28;96712;-63
2022/11/23 03:29:56;;;;;;;;;49.00;40.60;;;;;6.06;60.48;97673.38;6163723;28;96391;-62
2022/11/23 03:32:59;;;;;;;;;50.00;40.00;;;;;6.16;60.43;97666.72;6171164;28;96520;-63
2022/11/23 03:36:03;;;;;;;;;48.25;39.00;;;;;6.20;60.38;97675.94;6172071;28;96307;-62
2022/11/23 03:39:13;;;;;;;;;51.60;41.40;;;;;6.24;60.73;97671.75;6188249;28;96291;-63
2022/11/23 03:42:26;;;;;;;;;51.00;42.20;;;;;6.27;60.07;97663.28;6188576;28;96463;-64
2022/11/23 03:45:32;;;;;;;;;50.50;41.50;;;;;6.21;59.81;97664.97;6171669;28;96888;-65
2022/11/23 03:48:35;;;;;;;;;51.40;41.40;;;;;6.17;59.93;97662.97;6170441;28;98558;-64
2022/11/23 03:51:38;;;;;;;;;49.00;40.00;;;;;6.15;60.13;97657.06;6186741;28;96593;-63
2022/11/23 03:54:43;;;;;;;;;48.25;39.00;;;;;6.01;60.49;97667.09;6170595;28;96427;-62
2022/11/23 03:57:48;;;;;;;;;48.00;38.00;;;;;5.98;60.74;97668.34;6168447;28;97114;-62
2022/11/23 04:00:54;;;;;;;;;47.60;38.60;;;;;6.00;60.81;97660.09;6186576;28;96934;-63
2022/11/23 04:03:57;;;;;;;;;52.60;41.00;;;;;6.05;61.06;97661.06;6186918;28;96363;-63
2022/11/23 04:07:12;;;;;;;;;50.60;41.00;;;;;6.12;60.65;97660.97;6154305;28;98339;-62
2022/11/23 04:10:23;;;;;;;;;50.80;39.20;;;;;6.08;60.70;97663.28;6170504;28;96193;-62
2022/11/23 04:13:42;;;;;;;;;49.00;40.50;;;;;5.98;60.65;97663.00;6170828;28;96947;-62
2022/11/23 04:16:46;;;;;;;;;48.50;39.00;;;;;6.00;60.40;97663.59;6156596;28;96913;-62
2022/11/23 04:19:51;;;;;;;;;46.00;38.00;;;;;5.88;61.03;97654.66;6162893;28;96423;-62
2022/11/23 04:22:54;;;;;;;;;40.00;33.00;;;;;5.85;60.95;97655.06;6163772;28;96892;-62
2022/11/23 04:25:58;;;;;;;;;38.25;31.75;;;;;5.88;60.81;97654.66;6159304;28;96510;-63
2022/11/23 04:29:02;;;;;;;;;46.80;38.00;;;;;5.84;60.75;97650.75;6168954;28;96444;-62
2022/11/23 04:32:08;;;;;;;;;49.80;41.20;;;;;5.92;60.94;97655.84;6167720;28;96456;-62
2022/11/23 04:35:13;;;;;;;;;40.00;33.25;;;;;5.89;60.89;97656.28;6161607;28;96403;-63
2022/11/23 04:38:19;;;;;;;;;47.00;38.50;;;;;5.93;60.95;97652.13;6162619;28;96403;-63
2022/11/23 04:41:24;;;;;;;;;47.20;37.80;;;;;6.00;60.82;97660.91;6146528;28;97242;-63
2022/11/23 04:44:28;;;;;;;;;46.00;36.75;;;;;6.04;60.84;97672.81;6173165;28;96641;-63
2022/11/23 04:47:38;;;;;;;;;44.33;36.00;;;;;6.01;60.42;97670.56;6168281;28;97707;-63
2022/11/23 04:50:46;;;;;;;;;40.00;33.00;;;;;6.01;60.48;97667.88;6186374;28;96828;-63
2022/11/23 04:54:01;;;;;;;;;45.40;37.40;;;;;6.04;60.57;97667.44;6163103;28;96733;-63
2022/11/23 04:57:10;;;;;;;;;46.25;36.75;;;;;6.01;60.53;97662.53;6183736;28;96396;-63
2022/11/23 05:00:16;;;;;;;;;45.60;38.60;;;;;6.04;60.81;97658.59;6169240;28;96288;-62
2022/11/23 05:03:22;;;;;;;;;47.60;38.60;;;;;6.12;60.55;97662.84;6167489;28;96910;-63
2022/11/23 05:06:25;;;;;;;;;47.25;38.00;;;;;6.14;60.55;97658.09;6184260;28;96823;-63
2022/11/23 05:09:29;;;;;;;;;47.00;37.00;;;;;6.00;60.66;97641.38;6185461;28;97545;-63
2022/11/23 05:12:48;;;;;;;;;52.00;41.00;;;;;6.09;60.77;97659.59;6173823;28;96645;-64
2022/11/23 05:15:51;;;;;;;;;41.40;35.00;;;;;6.08;60.59;97665.97;6169491;28;96456;-62
2022/11/23 05:19:02;;;;;;;;;45.80;37.40;;;;;6.02;60.59;97666.84;6175968;28;96745;-63
2022/11/23 05:22:05;;;;;;;;;49.60;39.60;;;;;6.05;60.47;97671.78;6185058;28;97018;-62
2022/11/23 05:25:11;;;;;;;;;45.50;38.50;;;;;5.99;60.61;97671.84;6181501;28;96225;-62
2022/11/23 05:28:16;;;;;;;;;49.00;39.00;;;;;5.85;60.76;97676.47;6170978;28;96386;-63
2022/11/23 05:31:39;;;;;;;;;52.00;42.00;;;;;5.81;61.18;97680.63;6167805;28;96315;-63
2022/11/23 05:34:44;;;;;;;;;52.20;41.00;;;;;5.81;61.49;97677.13;6167022;28;96312;-63
2022/11/23 05:37:50;;;;;;;;;49.60;39.60;;;;;5.86;61.37;97669.28;6167060;28;96292;-63
2022/11/23 05:40:54;;;;;;;;;50.00;40.00;;;;;5.81;60.99;97669.94;6179475;28;96327;-63
2022/11/23 05:43:57;;;;;;;;;51.40;41.60;;;;;5.76;61.56;97658.25;6179819;28;96625;-63
2022/11/23 05:47:03;;;;;;;;;50.00;41.00;;;;;5.85;62.32;97668.44;6187348;28;97024;-63
2022/11/23 05:50:10;;;;;;;;;55.00;42.00;;;;;5.85;61.91;97667.63;6183405;28;97179;-63
2022/11/23 05:53:18;;;;;;;;;53.60;43.80;;;;;5.78;61.75;97680.22;6174721;28;96349;-63
2022/11/23 05:56:26;;;;;;;;;45.00;36.50;;;;;5.77;62.02;97690.09;6150202;28;96593;-63
2022/11/23 05:59:39;;;;;;;;;44.00;36.00;;;;;5.73;62.08;97694.28;6163935;28;96500;-63
2022/11/23 06:02:46;;;;;;;;;40.33;34.33;;;;;5.62;61.88;97697.66;6182390;28;96356;-63
2022/11/23 06:05:51;;;;;;;;;48.75;40.00;;;;;5.58;62.37;97709.81;6178849;28;96545;-63
2022/11/23 06:09:02;;;;;;;;;51.60;41.60;;;;;5.57;62.28;97710.88;6149102;28;97139;-63
2022/11/23 06:12:07;;;;;;;;;49.00;40.00;;;;;5.58;62.20;97718.66;6180055;28;97895;-63
2022/11/23 06:15:10;;;;;;;;;49.60;40.00;;;;;5.68;62.26;97718.16;6167464;28;96339;-63
2022/11/23 06:18:14;;;;;;;;;47.00;38.00;;;;;5.70;62.16;97721.47;6166232;28;97563;-62
2022/11/23 06:21:24;;;;;;;;;47.80;39.00;;;;;5.62;62.07;97721.72;6184595;28;96661;-63
2022/11/23 06:24:28;;;;;;;;;44.50;36.00;;;;;5.72;62.64;97723.91;6151841;28;96983;-64
2022/11/23 06:27:55;;;;;;;;;48.00;38.00;;;;;5.85;62.12;97729.13;6175591;28;96358;-64
2022/11/23 06:31:03;;;;;;;;;44.40;34.00;;;;;5.83;62.02;97734.69;6167849;28;96677;-64
2022/11/23 06:34:07;;;;;;;;;46.40;36.40;;;;;5.80;61.93;97726.31;6159264;28;96260;-64
2022/11/23 06:37:13;;;;;;;;;40.20;34.20;;;;;5.78;62.00;97723.84;6156250;28;96318;-64
2022/11/23 06:40:18;;;;;;;;;32.80;29.40;;;;;5.73;62.05;97718.34;6179757;28;96847;-64
2022/11/23 06:43:21;;;;;;;;;39.00;33.00;;;;;5.80;61.92;97719.09;6162237;28;96899;-64
2022/11/23 06:46:25;;;;;;;;;29.20;26.20;;;;;5.76;62.12;97714.41;6177636;28;96973;-64
2022/11/23 06:49:28;;;;;;;;;38.00;32.00;;;;;5.72;62.37;97730.06;6161686;28;96608;-64
2022/11/23 06:52:55;;;;;;;;;40.25;31.00;;;;;5.82;62.65;97730.38;6159750;28;97811;-64
2022/11/23 06:56:09;;;;;;;;;38.25;33.00;;;;;5.87;62.16;97725.22;6165107;28;98119;-63
2022/11/23 06:59:14;;;;;;;;;34.00;30.00;;;;;5.80;62.26;97727.13;6180446;28;96619;-64
2022/11/23 07:02:18;;;;;;;;;36.50;32.50;;;;;5.79;62.52;97735.38;6162065;28;96389;-64
2022/11/23 07:05:23;;;;;;;;;40.40;33.40;;;;;5.86;62.37;97738.81;6174420;28;96848;-64
2022/11/23 07:08:27;;;;;;;;;32.25;28.25;;;;;5.93;62.28;97742.25;6166957;28;96383;-64
2022/11/23 07:11:34;;;;;;;;;34.80;28.00;;;;;5.98;62.07;97729.03;6170333;28;96650;-64
2022/11/23 07:14:37;;;;;;;;;27.50;26.25;;;;;6.02;62.02;97732.91;6181593;28;96973;-64
2022/11/23 07:17:41;;;;;;;;;34.00;28.00;;;;;6.01;62.52;97729.41;6174966;28;96607;-64
2022/11/23 07:20:45;;;;;;;;;27.80;26.60;;;;;5.96;62.21;97731.13;6180625;28;96351;-64
2022/11/23 07:23:50;;;;;;;;;32.40;30.00;;;;;5.73;62.34;97709.50;6168637;28;96478;-64
2022/11/23 07:26:54;;;;;;;;;34.60;30.20;;;;;5.99;62.33;97739.53;6162290;28;97061;-63
2022/11/23 07:29:58;;;;;;;;;30.50;29.00;;;;;6.07;61.81;97733.06;6180683;28;97426;-63
2022/11/23 07:33:02;;;;;;;;;34.00;30.40;;;;;6.16;62.11;97729.06;6174189;28;96916;-63
2022/11/23 07:36:06;;;;;;;;;29.80;27.60;;;;;6.22;61.41;97727.34;6163278;28;96374;-63
2022/11/23 07:39:13;;;;;;;;;28.25;26.00;;;;;6.12;61.53;97714.50;6182845;28;96842;-63
2022/11/23 07:42:17;;;;;;;;;32.40;30.40;;;;;6.25;61.74;97724.25;6178811;28;96506;-63
2022/11/23 07:45:37;;;;;;;;;30.40;27.00;;;;;6.11;61.50;97710.16;6185269;28;96463;-64
2022/11/23 07:48:42;;;;;;;;;29.50;27.50;;;;;6.03;62.25;97716.66;6171412;28;96963;-63
2022/11/23 07:51:45;;;;;;;;;39.00;33.00;;;;;5.99;62.20;97715.44;6186230;28;96903;-63
2022/11/23 07:54:50;;;;;;;;;37.80;32.40;;;;;5.86;62.61;97726.25;6168841;28;97358;-63
2022/11/23 07:57:54;;;;;;;;;36.40;32.40;;;;;5.83;63.22;97726.69;6188332;28;96753;-63
2022/11/23 08:00:57;;;;;;;;;35.00;30.00;;;;;5.82;63.41;97713.50;6187659;28;96764;-64
2022/11/23 08:04:01;;;;;;;;;27.50;24.50;;;;;5.77;64.25;97716.84;6188706;28;97505;-64
2022/11/23 08:07:04;;;;;;;;;33.40;30.40;;;;;5.83;63.75;97709.81;6188246;28;97521;-64
2022/11/23 08:10:10;;;;;;;;;34.80;30.00;;;;;5.82;63.79;97716.19;6186936;28;96843;-64
2022/11/23 08:13:13;;;;;;;;;34.00;30.80;;;;;5.83;63.56;97709.81;6188852;28;96854;-63
2022/11/23 08:16:17;;;;;;;;;36.50;31.00;;;;;5.84;63.93;97722.97;6185672;28;96264;-64
2022/11/23 08:19:21;;;;;;;;;31.50;28.50;;;;;5.91;63.80;97709.59;6190031;28;96203;-64
2022/11/23 08:22:25;;;;;;;;;32.60;30.00;;;;;6.00;63.48;97703.72;6200703;28;97467;-64
2022/11/23 08:25:31;;;;;;;;;34.00;30.00;;;;;5.93;63.60;97702.13;6187113;28;97825;-63
2022/11/23 08:28:34;;;;;;;;;40.20;33.00;;;;;5.94;64.00;97706.44;6187410;28;96484;-64
2022/11/23 08:31:37;;;;;;;;;32.50;30.50;;;;;5.97;64.01;97714.03;6188373;28;96172;-64
2022/11/23 08:34:42;;;;;;;;;36.00;32.00;;;;;5.88;64.25;97718.84;6189044;28;96429;-64
2022/11/23 08:37:45;;;;;;;;;34.20;30.00;;;;;5.98;64.00;97721.84;6189680;28;97974;-64
2022/11/23 08:40:50;;;;;;;;;41.40;33.00;;;;;6.03;63.92;97715.81;6188851;28;96387;-64
2022/11/23 08:43:53;;;;;;;;;36.60;32.00;;;;;6.03;64.12;97729.19;6189112;28;96936;-64
2022/11/23 08:46:57;;;;;;;;;39.50;32.00;;;;;6.04;64.02;97731.66;6188229;28;96235;-63
2022/11/23 08:50:00;;;;;;;;;34.00;31.80;;;;;6.01;64.40;97732.09;6188522;28;96350;-63
2022/11/23 08:53:04;;;;;;;;;34.20;30.00;;;;;6.13;63.82;97734.88;6186669;28;96596;-63
2022/11/23 08:56:10;;;;;;;;;29.60;25.20;;;;;6.11;64.03;97742.28;6187990;28;96636;-63
2022/11/23 08:59:13;;;;;;;;;35.00;30.00;;;;;5.97;64.43;97738.91;6188259;28;96968;-63
2022/11/23 09:02:16;;;;;;;;;39.40;33.00;;;;;6.09;64.27;97739.84;6153937;28;98969;-63
2022/11/23 09:05:20;;;;;;;;;33.60;30.00;;;;;5.87;64.42;97694.97;6188221;28;96354;-63
2022/11/23 09:08:23;;;;;;;;;32.75;28.50;;;;;6.12;64.42;97732.41;6188415;28;96498;-64
2022/11/23 09:11:28;;;;;;;;;33.25;29.50;;;;;6.11;64.36;97730.78;6187660;28;96393;-63
2022/11/23 09:14:31;;;;;;;;;35.40;29.60;;;;;6.11;64.12;97728.09;6187620;28;96236;-63
2022/11/23 09:17:34;;;;;;;;;40.20;34.80;;;;;6.18;64.27;97724.31;6186118;28;96424;-63
2022/11/23 09:20:39;;;;;;;;;33.75;30.25;;;;;6.20;64.16;97724.09;6186763;28;96574;-63
2022/11/23 09:23:43;;;;;;;;;39.00;30.25;;;;;6.22;64.31;97738.88;6165958;28;98456;-64
2022/11/23 09:26:48;;;;;;;;;34.25;32.00;;;;;6.20;64.01;97716.91;6184413;28;96633;-63
2022/11/23 09:29:52;;;;;;;;;39.80;33.80;;;;;6.25;64.27;97717.03;6185327;28;97090;-64
2022/11/23 09:32:55;;;;;;;;;37.60;32.00;;;;;6.18;64.69;97707.44;6186032;28;96304;-64
2022/11/23 09:35:59;;;;;;;;;44.40;35.60;;;;;6.25;64.21;97705.53;6186554;28;96218;-62
2022/11/23 09:39:03;;;;;;;;;38.80;33.00;;;;;6.40;64.18;97701.41;6187297;28;96303;-62
2022/11/23 09:42:33;;;;;;;;;44.80;36.00;;;;;6.44;63.91;97709.84;6169483;28;96445;-63
2022/11/23 09:45:45;;;;;;;;;42.00;35.00;;;;;6.50;63.93;97700.88;6185992;28;96537;-64
2022/11/23 09:49:09;;;;;;;;;38.40;31.40;;;;;6.32;63.81;97703.56;6179766;28;97470;-64
2022/11/23 09:52:17;;;;;;;;;43.60;36.40;;;;;6.13;63.96;97676.00;6182667;28;96398;-64
2022/11/23 09:55:33;;;;;;;;;42.20;34.00;;;;;6.30;64.22;97697.66;6185390;28;96779;-64
2022/11/23 09:58:40;;;;;;;;;41.80;34.80;;;;;6.36;64.10;97689.50;6182670;28;96514;-64
2022/11/23 10:01:43;;;;;;;;;33.60;30.60;;;;;6.46;63.81;97694.34;6184521;28;96866;-64
2022/11/23 10:04:47;;;;;;;;;38.00;33.00;;;;;6.41;63.38;97686.16;6181152;28;96380;-63
2022/11/23 10:08:04;;;;;;;;;42.25;35.25;;;;;6.26;63.97;97691.91;6160843;28;96810;-63
2022/11/23 10:11:29;;;;;;;;;39.00;32.33;;;;;6.30;64.53;97684.25;6186909;28;96448;-63
2022/11/23 10:14:47;;;;;;;;;35.00;31.40;;;;;6.37;64.14;97685.81;6168596;28;96441;-63
2022/11/23 10:18:19;;;;;;;;;41.60;34.60;;;;;6.36;63.91;97668.09;6186161;28;96433;-63
2022/11/23 10:21:34;;;;;;;;;36.00;32.00;;;;;6.50;63.85;97676.78;6186370;28;96471;-63
2022/11/23 10:24:43;;;;;;;;;37.00;33.00;;;;;6.51;63.49;97676.56;6162488;28;96641;-63
2022/11/23 10:27:50;;;;;;;;;37.40;32.40;;;;;6.53;63.47;97671.00;6178014;28;96305;-63
2022/11/23 10:31:01;;;;;;;;;45.20;37.20;;;;;6.66;63.41;97672.66;6182698;28;96697;-63
2022/11/23 10:34:11;;;;;;;;;44.60;36.00;;;;;6.71;62.95;97668.28;6184586;28;96329;-63
2022/11/23 10:37:17;;;;;;;;;43.20;36.00;;;;;6.71;63.25;97662.91;6162266;28;99157;-63
2022/11/23 10:40:25;;;;;;;;;40.25;33.00;;;;;6.64;63.32;97664.88;6184447;28;96443;-63
2022/11/23 10:43:35;;;;;;;;;39.00;33.00;;;;;6.60;63.12;97660.22;6185174;28;96298;-64
2022/11/23 10:46:40;;;;;;;;;38.50;33.00;;;;;6.65;63.00;97658.47;6185661;28;96323;-63
2022/11/23 10:49:57;;;;;;;;;43.75;36.00;;;;;6.77;63.01;97662.03;6185124;28;97186;-63
2022/11/23 10:53:12;;;;;;;;;45.00;35.00;;;;;6.91;62.29;97660.78;6185187;28;96881;-63
2022/11/23 10:56:15;;;;;;;;;44.60;36.20;;;;;6.88;62.48;97655.06;6184920;28;96768;-64
2022/11/23 10:59:33;;;;;;;;;45.00;36.75;;;;;6.86;62.21;97655.28;6183517;28;96365;-63
2022/11/23 11:02:41;;;;;;;;;36.50;30.00;;;;;6.79;62.34;97659.91;6179484;28;96408;-63
2022/11/23 11:05:50;;;;;;;;;41.40;34.40;;;;;6.45;62.72;97639.19;6185463;28;96777;-63
2022/11/23 11:09:21;;;;;;;;;42.00;33.60;;;;;6.46;63.41;97652.31;6184648;28;96794;-63
2022/11/23 11:12:26;;;;;;;;;38.80;33.00;;;;;6.49;63.70;97640.38;6184586;28;96462;-63
2022/11/23 11:15:30;;;;;;;;;45.00;36.00;;;;;6.65;63.49;97645.06;6184414;28;96509;-63
2022/11/23 11:18:41;;;;;;;;;40.00;33.40;;;;;6.72;63.21;97643.13;6179178;28;97091;-63
2022/11/23 11:21:46;;;;;;;;;40.00;33.60;;;;;6.59;63.02;97640.66;6189145;28;96846;-63
2022/11/23 11:24:51;;;;;;;;;47.40;38.80;;;;;6.62;63.38;97640.19;6186963;28;97228;-63
2022/11/23 11:27:54;;;;;;;;;44.75;36.00;;;;;6.67;63.37;97645.69;6169127;28;96700;-63
2022/11/23 11:31:13;;;;;;;;;43.50;33.75;;;;;6.75;63.17;97648.03;6187682;28;96425;-63
2022/11/23 11:34:23;;;;;;;;;44.20;36.00;;;;;6.70;62.79;97645.22;6181674;28;97510;-63
2022/11/23 11:37:32;;;;;;;;;40.00;35.00;;;;;6.56;63.41;97646.44;6187167;28;96661;-63
2022/11/23 11:40:41;;;;;;;;;45.60;36.00;;;;;6.46;63.62;97644.28;6188685;28;96375;-63
2022/11/23 11:43:48;;;;;;;;;42.60;35.40;;;;;6.46;63.81;97646.97;6188792;28;96446;-63
2022/11/23 11:46:57;;;;;;;;;43.40;33.40;;;;;6.47;63.90;97645.13;6187656;28;96627;-63
2022/11/23 11:50:17;;;;;;;;;40.60;33.40;;;;;6.55;63.99;97644.78;6187352;28;96284;-63
2022/11/23 11:53:26;;;;;;;;;37.00;33.00;;;;;6.69;63.51;97648.97;6187075;28;96319;-63
2022/11/23 11:56:37;;;;;;;;;39.80;33.80;;;;;6.75;63.16;97648.03;6181303;28;96964;-63
2022/11/23 11:59:43;;;;;;;;;45.00;36.00;;;;;6.72;62.92;97648.50;6182534;28;96258;-63
2022/11/23 12:02:58;;;;;;;;;41.60;33.00;;;;;6.67;63.04;97642.19;6180636;28;97231;-63
2022/11/23 12:06:08;;;;;;;;;37.00;32.00;;;;;6.60;63.30;97642.25;6176537;28;96298;-64
2022/11/23 12:09:16;;;;;;;;;44.40;36.20;;;;;6.67;63.41;97643.00;6179034;28;96575;-64
2022/11/23 12:12:22;;;;;;;;;35.00;32.00;;;;;6.76;63.12;97655.03;6164752;28;97559;-63
2022/11/23 12:15:37;;;;;;;;;44.60;35.80;;;;;6.77;63.30;97656.66;6166174;28;97029;-64
2022/11/23 12:19:02;;;;;;;;;42.33;33.33;;;;;6.84;62.76;97653.91;6160825;28;97283;-63
2022/11/23 12:22:25;;;;;;;;;36.00;32.00;;;;;6.71;63.02;97654.88;6164190;28;96636;-63
2022/11/23 12:25:35;;;;;;;;;40.75;34.25;;;;;6.82;63.07;97639.91;6171605;28;96909;-65
2022/11/23 12:29:13;;;;;;;;;43.00;35.00;;;;;6.87;62.41;97629.31;6167040;28;97746;-63
2022/11/23 12:32:29;;;;;;;;;43.00;36.00;;;;;6.96;62.54;97649.38;6168296;28;97021;-64
2022/11/23 12:35:55;;;;;;;;;39.50;33.25;;;;;6.99;62.22;97646.22;6174537;28;96774;-65
2022/11/23 12:39:09;;;;;;;;;42.60;35.80;;;;;6.91;62.46;97651.94;6184902;28;96466;-64
2022/11/23 12:42:23;;;;;;;;;35.50;31.00;;;;;6.95;62.41;97651.25;6185512;28;96462;-64
2022/11/23 12:45:43;;;;;;;;;37.00;32.00;;;;;6.94;61.96;97648.78;6184238;28;96597;-64
2022/11/23 12:49:03;;;;;;;;;43.00;34.60;;;;;6.95;62.08;97656.59;6163223;28;96787;-64
2022/11/23 12:52:26;;;;;;;;;42.40;34.80;;;;;6.99;61.88;97651.59;6181792;28;96892;-63
2022/11/23 12:55:43;;;;;;;;;39.00;32.40;;;;;6.83;61.56;97620.13;6182292;28;96462;-64
2022/11/23 12:58:50;;;;;;;;;40.50;33.00;;;;;7.15;61.64;97645.59;6181984;28;97266;-63
2022/11/23 13:01:58;;;;;;;;;37.75;33.00;;;;;6.97;61.66;97637.63;6180156;28;97079;-63
2022/11/23 13:05:28;;;;;;;;;41.60;34.40;;;;;7.06;61.29;97651.50;6166847;28;97000;-63
2022/11/23 13:09:05;;;;;;;;;41.00;33.40;;;;;7.16;61.31;97667.84;6165232;28;96958;-63
2022/11/23 13:12:27;;;;;;;;;42.67;35.00;;;;;7.33;60.69;97663.47;6154875;28;96421;-64
2022/11/23 13:15:48;;;;;;;;;42.60;35.60;;;;;7.39;60.55;97662.53;6164612;28;97310;-64
2022/11/23 13:19:06;;;;;;;;;44.20;36.00;;;;;7.44;60.28;97653.78;6161561;28;97291;-65
2022/11/23 13:22:16;;;;;;;;;40.00;33.00;;;;;7.45;59.72;97666.16;6162453;28;96784;-63
2022/11/23 13:25:27;;;;;;;;;41.00;33.00;;;;;7.43;60.15;97673.63;6161141;28;97520;-65
2022/11/23 13:28:32;;;;;;;;;35.40;30.20;;;;;7.49;59.54;97667.31;6165683;28;96647;-65
2022/11/23 13:31:35;;;;;;;;;40.40;33.40;;;;;7.49;59.80;97668.13;6155100;28;97169;-64
2022/11/23 13:34:46;;;;;;;;;40.00;33.20;;;;;7.53;59.68;97668.47;6175450;28;96603;-64
2022/11/23 13:38:38;;;;;;;;;38.00;33.00;;;;;7.50;59.34;97672.44;6181126;28;96319;-63
2022/11/23 13:41:59;;;;;;;;;42.33;35.33;;;;;7.28;59.82;97661.44;6068318;28;97746;-65
2022/11/23 13:45:26;;;;;;;;;42.75;35.50;;;;;7.35;59.96;97661.34;6086461;28;96426;-64
2022/11/23 13:48:29;;;;;;;;;40.25;35.25;;;;;7.38;59.86;97666.25;6082051;28;96997;-64
2022/11/23 13:52:06;;;;;;;;;45.40;35.00;;;;;7.45;59.91;97663.47;6084905;28;96327;-63
2022/11/23 13:55:22;;;;;;;;;39.00;32.60;;;;;7.47;59.72;97672.09;6087808;28;99066;-64
2022/11/23 13:58:49;;;;;;;;;41.20;34.00;;;;;7.50;59.71;97671.63;6084601;28;96985;-63
2022/11/23 14:02:03;;;;;;;;;43.40;34.80;;;;;7.51;59.61;97682.13;6088426;28;96970;-63
2022/11/23 14:05:53;;;;;;;;;45.40;36.40;;;;;7.51;59.65;97682.13;6080248;28;98223;-64
2022/11/23 14:09:05;;;;;;;;;39.40;33.00;;;;;7.55;59.68;97674.44;6085211;28;96312;-64
2022/11/23 14:12:18;;;;;;;;;45.00;35.00;;;;;7.45;60.25;97666.97;6120644;28;96672;-63
2022/11/23 14:15:23;;;;;;;;;41.00;35.00;;;;;7.45;59.87;97669.66;6163884;28;96994;-64
2022/11/23 14:18:46;;;;;;;;;39.60;35.00;;;;;7.47;59.81;97672.94;6167935;28;96991;-64
2022/11/23 14:22:02;;;;;;;;;40.33;32.33;;;;;7.55;59.72;97666.38;6180632;28;96997;-64
2022/11/23 14:25:35;;;;;;;;;47.00;38.00;;;;;7.61;59.32;97665.47;6185924;28;96494;-65
2022/11/23 14:28:52;;;;;;;;;43.40;36.80;;;;;7.57;58.97;97665.13;6171906;28;96189;-64
2022/11/23 14:32:15;;;;;;;;;40.60;35.00;;;;;7.53;59.33;97666.63;6185921;28;96456;-64
2022/11/23 14:35:31;;;;;;;;;42.40;35.00;;;;;7.50;59.51;97674.31;6186348;28;96467;-64